createdAt,value
2023-05-09T00:01:13.965Z,913.72
2023-05-09T00:03:42.314Z,934.05
2023-05-09T00:06:09.308Z,936.28
2023-05-09T00:08:36.080Z,925.00
2023-05-09T00:11:02.507Z,955.40
2023-05-09T00:13:28.921Z,953.15
2023-05-09T00:15:57.238Z,959.40
2023-05-09T00:18:23.805Z,957.95
2023-05-09T00:20:50.756Z,957.08
2023-05-09T00:23:17.070Z,964.28
2023-05-09T00:25:43.705Z,972.95
2023-05-09T00:28:10.170Z,968.97
2023-05-09T00:30:36.705Z,1010.92
2023-05-09T00:33:03.099Z,1004.45
2023-05-09T00:35:29.619Z,991.30
2023-05-09T00:37:55.936Z,960.17
2023-05-09T00:40:22.418Z,955.05
2023-05-09T00:42:48.786Z,986.03
2023-05-09T00:45:15.435Z,992.53
2023-05-09T00:47:42.134Z,978.42
2023-05-09T00:50:09.185Z,985.00
2023-05-09T00:52:36.328Z,965.05
2023-05-09T00:55:02.868Z,990.83
2023-05-09T00:57:29.198Z,977.22
2023-05-09T00:59:56.006Z,938.13
2023-05-09T01:02:22.441Z,963.42
2023-05-09T01:04:48.849Z,982.00
2023-05-09T01:07:35.370Z,955.05
2023-05-09T01:10:11.704Z,933.35
2023-05-09T01:13:00.160Z,914.75
2023-05-09T01:15:51.083Z,911.28
2023-05-09T01:18:26.148Z,885.88
2023-05-09T01:21:01.734Z,891.55
2023-05-09T01:23:55.688Z,913.35
2023-05-09T01:26:24.939Z,864.95
2023-05-09T01:29:36.718Z,912.63
2023-05-09T01:32:08.119Z,867.22
2023-05-09T01:34:35.567Z,897.67
2023-05-09T01:37:04.932Z,901.03
2023-05-09T01:39:33.792Z,824.63
2023-05-09T01:42:02.586Z,829.40
2023-05-09T01:44:37.870Z,830.67
2023-05-09T01:47:04.874Z,804.05
2023-05-09T01:49:33.458Z,803.35
2023-05-09T01:52:03.684Z,816.85
2023-05-09T01:54:31.206Z,823.13
2023-05-09T01:56:59.126Z,788.58
2023-05-09T01:59:27.116Z,780.22
2023-05-09T02:01:55.166Z,786.00
2023-05-09T02:04:22.175Z,787.25
2023-05-09T02:06:52.949Z,751.65
2023-05-09T02:09:20.359Z,738.78
2023-05-09T02:11:46.967Z,730.30
2023-05-09T02:14:14.028Z,753.47
2023-05-09T02:16:40.787Z,691.83
2023-05-09T02:19:07.326Z,690.63
2023-05-09T02:21:33.927Z,721.15
2023-05-09T02:24:00.326Z,710.47
2023-05-09T02:26:28.330Z,713.17
2023-05-09T02:28:56.085Z,678.38
2023-05-09T02:31:25.036Z,665.60
2023-05-09T02:33:54.067Z,656.75
2023-05-09T02:36:22.128Z,674.35
2023-05-09T02:38:48.675Z,721.92
2023-05-09T02:41:16.092Z,735.15
2023-05-09T02:43:42.999Z,691.17
2023-05-09T02:46:10.384Z,666.95
2023-05-09T02:48:37.394Z,673.13
2023-05-09T02:51:04.331Z,613.92
2023-05-09T02:53:31.084Z,661.95
2023-05-09T02:55:57.406Z,669.25
2023-05-09T02:58:23.813Z,710.38
2023-05-09T03:00:50.855Z,729.63
2023-05-09T03:03:18.018Z,728.47
2023-05-09T03:05:44.702Z,745.92
2023-05-09T03:08:11.049Z,754.88
2023-05-09T03:10:37.398Z,736.72
2023-05-09T03:13:03.999Z,702.50
2023-05-09T03:15:30.564Z,706.08
2023-05-09T03:17:56.898Z,712.22
2023-05-09T03:20:23.283Z,726.13
2023-05-09T03:22:49.641Z,750.42
2023-05-09T03:25:16.723Z,713.17
2023-05-09T03:27:57.317Z,705.97
2023-05-09T03:30:23.836Z,701.83
2023-05-09T03:32:50.239Z,703.13
2023-05-09T03:35:16.868Z,675.67
2023-05-09T03:37:43.388Z,680.55
2023-05-09T03:40:10.133Z,691.95
2023-05-09T03:42:36.474Z,693.35
2023-05-09T03:45:02.805Z,703.35
2023-05-09T03:47:29.141Z,685.97
2023-05-09T03:49:55.621Z,666.45
2023-05-09T03:52:21.979Z,709.45
2023-05-09T03:54:48.382Z,712.92
2023-05-09T03:57:14.699Z,709.08
2023-05-09T03:59:41.038Z,727.85
2023-05-09T04:02:07.401Z,713.58
2023-05-09T04:04:33.860Z,676.95
2023-05-09T04:07:00.207Z,664.47
2023-05-09T04:09:27.285Z,666.92
2023-05-09T04:11:53.624Z,678.60
2023-05-09T04:14:19.973Z,704.63
2023-05-09T04:16:46.360Z,712.95
2023-05-09T04:19:12.713Z,681.17
2023-05-09T04:21:39.053Z,664.67
2023-05-09T04:24:05.861Z,634.08
2023-05-09T04:26:32.287Z,627.63
2023-05-09T04:28:58.659Z,633.72
2023-05-09T04:31:26.366Z,642.17
2023-05-09T04:33:52.862Z,679.05
2023-05-09T04:36:19.318Z,696.53
2023-05-09T04:38:46.397Z,681.63
2023-05-09T04:41:12.725Z,675.40
2023-05-09T04:43:39.099Z,711.70
2023-05-09T04:46:05.655Z,733.65
2023-05-09T04:48:32.030Z,755.45
2023-05-09T04:50:58.510Z,709.80
2023-05-09T04:53:24.828Z,632.08
2023-05-09T04:55:51.864Z,626.08
2023-05-09T04:58:18.247Z,616.83
2023-05-09T05:00:44.641Z,574.05
2023-05-09T05:03:11.103Z,616.30
2023-05-09T05:05:38.001Z,629.88
2023-05-09T05:08:04.773Z,639.50
2023-05-09T05:10:31.230Z,539.97
2023-05-09T05:12:57.649Z,566.72
2023-05-09T05:15:24.053Z,541.22
2023-05-09T05:17:50.452Z,527.25
2023-05-09T05:20:16.945Z,594.58
2023-05-09T05:22:45.775Z,610.53
2023-05-09T05:25:13.191Z,641.15
2023-05-09T05:27:39.896Z,641.13
2023-05-09T05:30:07.580Z,659.25
2023-05-09T05:32:33.930Z,660.10
2023-05-09T05:35:02.456Z,620.35
2023-05-09T05:37:28.918Z,597.03
2023-05-09T05:39:55.384Z,622.53
2023-05-09T05:42:21.731Z,636.85
2023-05-09T05:44:48.094Z,572.35
2023-05-09T05:47:14.447Z,609.35
2023-05-09T05:49:41.150Z,569.00
2023-05-09T05:52:07.529Z,577.47
2023-05-09T05:54:33.889Z,602.75
2023-05-09T05:57:00.372Z,601.63
2023-05-09T05:59:26.796Z,560.58
2023-05-09T06:01:53.258Z,555.58
2023-05-09T06:04:19.785Z,533.17
2023-05-09T06:06:46.720Z,547.45
2023-05-09T06:09:13.153Z,564.83
2023-05-09T06:11:39.549Z,554.92
2023-05-09T06:14:06.130Z,567.67
2023-05-09T06:16:32.789Z,552.97
2023-05-09T06:18:59.233Z,537.67
2023-05-09T06:21:26.209Z,572.45
2023-05-09T06:24:07.921Z,571.17
2023-05-09T06:26:38.698Z,491.30
2023-05-09T06:29:06.406Z,542.22
2023-05-09T06:31:35.710Z,559.25
2023-05-09T06:34:02.152Z,506.27
2023-05-09T06:36:28.485Z,457.63
2023-05-09T06:38:54.835Z,475.48
2023-05-09T06:41:21.749Z,531.30
2023-05-09T06:43:48.606Z,435.02
2023-05-09T06:46:16.353Z,466.40
2023-05-09T06:48:42.789Z,486.55
2023-05-09T06:51:09.261Z,432.52
2023-05-09T06:53:35.639Z,419.80
2023-05-09T06:56:04.856Z,451.50
2023-05-09T06:58:31.334Z,464.63
2023-05-09T07:00:57.942Z,469.92
2023-05-09T07:03:24.345Z,483.38
2023-05-09T07:05:52.332Z,453.38
2023-05-09T07:08:18.749Z,466.27
2023-05-09T07:10:45.142Z,463.23
2023-05-09T07:13:11.508Z,461.67
2023-05-09T07:15:41.826Z,381.58
2023-05-09T07:18:09.437Z,330.55
2023-05-09T07:20:36.098Z,277.75
2023-05-09T07:23:05.881Z,409.00
2023-05-09T07:25:32.274Z,308.10
2023-05-09T07:27:58.661Z,321.92
2023-05-09T07:30:25.176Z,224.35
2023-05-09T07:32:51.962Z,254.32
2023-05-09T07:35:19.133Z,313.55
2023-05-09T07:37:45.792Z,242.73
2023-05-09T07:40:12.698Z,223.25
2023-05-09T07:42:39.440Z,203.85
2023-05-09T07:45:06.438Z,231.80
2023-05-09T07:47:33.363Z,284.85
2023-05-09T07:49:59.751Z,311.23
2023-05-09T07:52:26.265Z,177.60
2023-05-09T07:54:52.654Z,182.98
2023-05-09T07:57:19.091Z,187.52
2023-05-09T07:59:45.511Z,146.10
2023-05-09T08:02:11.888Z,161.82
2023-05-09T08:04:39.052Z,161.00
2023-05-09T08:07:05.664Z,175.32
2023-05-09T08:09:32.289Z,134.93
2023-05-09T08:11:58.550Z,65.75
2023-05-09T08:14:24.942Z,142.13
2023-05-09T08:16:51.439Z,201.50
2023-05-09T08:19:18.833Z,100.38
2023-05-09T08:21:45.527Z,74.80
2023-05-09T08:24:11.931Z,89.10
2023-05-09T08:26:38.330Z,41.42
2023-05-09T08:29:04.728Z,56.13
2023-05-09T08:31:31.157Z,45.13
2023-05-09T08:33:57.542Z,116.68
2023-05-09T08:36:24.063Z,34.50
2023-05-09T08:38:50.508Z,29.25
2023-05-09T08:41:17.215Z,27.02
2023-05-09T08:43:44.206Z,43.35
2023-05-09T08:46:11.932Z,153.38
2023-05-09T08:48:39.620Z,68.18
2023-05-09T08:51:08.111Z,26.70
2023-05-09T08:53:34.682Z,57.95
2023-05-09T08:56:02.644Z,80.22
2023-05-09T08:58:29.480Z,47.13
2023-05-09T09:00:56.646Z,29.63
2023-05-09T09:03:26.173Z,38.85
2023-05-09T09:05:54.458Z,57.95
2023-05-09T09:08:22.864Z,31.27
2023-05-09T09:10:49.688Z,86.20
2023-05-09T09:13:18.272Z,77.30
2023-05-09T09:15:46.930Z,62.70
2023-05-09T09:18:21.887Z,65.28
2023-05-09T09:20:51.205Z,22.70
2023-05-09T09:23:20.522Z,49.20
2023-05-09T09:25:47.542Z,26.00
2023-05-09T09:28:14.015Z,31.83
2023-05-09T09:30:48.214Z,23.83
2023-05-09T09:33:26.194Z,54.83
2023-05-09T09:35:54.545Z,38.33
2023-05-09T09:38:22.471Z,20.58
2023-05-09T09:40:51.903Z,23.30
2023-05-09T09:43:19.342Z,36.85
2023-05-09T09:45:50.938Z,24.35
2023-05-09T09:48:17.414Z,25.90
2023-05-09T09:50:43.739Z,24.17
2023-05-09T09:53:12.530Z,20.83
2023-05-09T09:55:50.081Z,22.73
2023-05-09T09:58:27.328Z,17.58
2023-05-09T10:01:11.240Z,14.05
2023-05-09T10:03:37.749Z,13.02
2023-05-09T10:06:04.592Z,13.25
2023-05-09T10:08:31.210Z,11.07
2023-05-09T10:10:59.758Z,23.80
2023-05-09T10:13:27.156Z,12.20
2023-05-09T10:15:55.323Z,12.77
2023-05-09T10:18:28.475Z,13.80
2023-05-09T10:20:57.958Z,15.57
2023-05-09T10:23:25.296Z,13.95
2023-05-09T10:26:03.080Z,14.98
2023-05-09T10:28:33.140Z,12.60
2023-05-09T10:31:22.422Z,14.07
2023-05-09T10:33:51.040Z,15.88
2023-05-09T10:36:20.309Z,23.73
2023-05-09T10:38:48.585Z,14.55
2023-05-09T10:41:18.733Z,12.65
2023-05-09T10:43:45.802Z,15.98
2023-05-09T10:46:13.100Z,11.30
2023-05-09T10:48:40.090Z,11.95
2023-05-09T10:51:08.018Z,18.27
2023-05-09T10:53:45.536Z,14.13
2023-05-09T10:56:32.641Z,15.68
2023-05-09T10:59:00.013Z,16.63
2023-05-09T11:01:38.990Z,14.32
2023-05-09T11:04:11.353Z,14.23
2023-05-09T11:06:41.972Z,12.77
2023-05-09T11:09:28.024Z,15.13
2023-05-09T11:12:00.534Z,19.48
2023-05-09T11:14:39.466Z,15.13
2023-05-09T11:17:08.381Z,16.30
2023-05-09T11:19:46.724Z,23.48
2023-05-09T11:22:21.650Z,23.05
2023-05-09T11:24:50.059Z,215.13
2023-05-09T11:27:20.583Z,532.80
2023-05-09T11:29:55.803Z,653.60
2023-05-09T11:32:27.739Z,707.58
2023-05-09T11:35:15.818Z,714.58
2023-05-09T11:37:50.205Z,760.50
2023-05-09T11:40:19.140Z,767.78
2023-05-09T11:42:58.472Z,831.00
2023-05-09T11:45:27.444Z,871.35
2023-05-09T11:47:54.254Z,913.08
2023-05-09T11:50:21.666Z,941.95
2023-05-09T11:52:48.895Z,989.83
2023-05-09T11:55:18.414Z,1000.40
2023-05-09T11:57:48.887Z,993.97
2023-05-09T12:00:19.819Z,1039.93
2023-05-09T12:02:47.091Z,1090.15
2023-05-09T12:05:15.679Z,1055.82
2023-05-09T12:07:42.908Z,1052.43
2023-05-09T12:10:11.377Z,1065.18
2023-05-09T12:12:47.338Z,1055.53
2023-05-09T12:15:14.490Z,1081.63
2023-05-09T12:17:44.951Z,1083.80
2023-05-09T12:20:11.668Z,1089.85
2023-05-09T12:22:38.213Z,1076.32
2023-05-09T12:25:09.506Z,1060.68
2023-05-09T12:27:37.510Z,1045.95
2023-05-09T12:30:10.044Z,1052.55
2023-05-09T12:32:39.415Z,1016.08
2023-05-09T12:35:08.559Z,1000.28
2023-05-09T12:37:34.971Z,987.70
2023-05-09T12:40:12.807Z,1006.78
2023-05-09T12:42:42.918Z,1014.70
2023-05-09T12:45:10.183Z,1034.60
2023-05-09T12:47:38.997Z,1013.03
2023-05-09T12:50:07.367Z,1028.22
2023-05-09T12:52:46.913Z,1023.88
2023-05-09T12:55:25.202Z,1030.00
2023-05-09T12:58:00.568Z,1050.53
2023-05-09T13:00:30.616Z,1023.58
2023-05-09T13:02:57.146Z,1016.00
2023-05-09T13:05:24.256Z,1018.88
2023-05-09T13:07:52.523Z,1052.22
2023-05-09T13:10:23.556Z,1079.65
2023-05-09T13:12:51.253Z,1071.00
2023-05-09T13:15:21.674Z,1059.40
2023-05-09T13:17:49.491Z,1081.93
2023-05-09T13:20:17.091Z,1085.80
2023-05-09T13:22:44.739Z,1102.20
2023-05-09T13:25:12.019Z,1118.13
2023-05-09T13:27:38.612Z,1094.43
2023-05-09T13:30:07.744Z,1118.32
2023-05-09T13:32:35.070Z,1087.82
2023-05-09T13:35:01.472Z,1113.70
2023-05-09T13:37:28.222Z,1080.05
2023-05-09T13:40:00.892Z,1056.55
2023-05-09T13:42:27.907Z,1087.88
2023-05-09T13:44:54.322Z,1074.20
2023-05-09T13:47:21.019Z,1065.90
2023-05-09T13:49:47.426Z,1073.82
2023-05-09T13:52:16.041Z,1080.90
2023-05-09T13:54:42.597Z,1088.22
2023-05-09T13:57:09.036Z,1091.60
2023-05-09T13:59:35.492Z,1097.70
2023-05-09T14:02:02.124Z,1140.63
2023-05-09T14:04:32.582Z,1117.93
2023-05-09T14:07:00.059Z,1072.70
2023-05-09T14:09:28.331Z,1056.68
2023-05-09T14:12:02.676Z,1050.15
2023-05-09T14:16:59.309Z,998.70
2023-05-09T14:19:27.095Z,1061.30
2023-05-09T14:21:53.613Z,1086.38
2023-05-09T14:24:30.040Z,1076.85
2023-05-09T14:26:57.450Z,1062.75
2023-05-09T14:29:29.569Z,1081.85
2023-05-09T14:31:56.161Z,1084.50
2023-05-09T14:34:22.869Z,1039.60
2023-05-09T14:36:50.292Z,1033.20
2023-05-09T14:39:22.109Z,1033.05
2023-05-09T14:41:49.957Z,1026.47
2023-05-09T14:44:17.267Z,1057.90
2023-05-09T14:46:43.867Z,1057.20
2023-05-09T14:49:10.348Z,1068.90
2023-05-09T14:51:40.286Z,1036.47
2023-05-09T14:54:06.804Z,1055.25
2023-05-09T14:56:33.369Z,1035.32
2023-05-09T14:59:00.069Z,1085.13
2023-05-09T15:01:26.613Z,1072.18
2023-05-09T15:03:53.123Z,1080.75
2023-05-09T15:06:19.518Z,1074.22
2023-05-09T15:08:46.141Z,1038.00
2023-05-09T15:11:12.616Z,1064.93
2023-05-09T15:13:39.093Z,1061.90
2023-05-09T15:16:08.688Z,1057.00
2023-05-09T15:18:37.436Z,1013.30
2023-05-09T15:21:04.195Z,1010.42
2023-05-09T15:23:30.835Z,1032.00
2023-05-09T15:25:57.537Z,1030.63
2023-05-09T15:28:24.228Z,1006.92
2023-05-09T15:30:51.049Z,1013.03
2023-05-09T15:33:17.776Z,1030.63
2023-05-09T15:35:45.122Z,1056.07
2023-05-09T15:38:15.464Z,1075.30
2023-05-09T15:40:42.214Z,1059.97
2023-05-09T15:43:08.723Z,1069.47
2023-05-09T15:45:36.905Z,1083.97
2023-05-09T15:48:03.978Z,1067.70
2023-05-09T15:50:30.322Z,1086.13
2023-05-09T15:52:57.054Z,1096.00
2023-05-09T15:55:23.476Z,1089.57
2023-05-09T15:57:51.379Z,1079.22
2023-05-09T16:00:18.291Z,1080.50
2023-05-09T16:02:44.925Z,1096.30
2023-05-09T16:05:11.400Z,1095.47
2023-05-09T16:07:37.855Z,1084.05
2023-05-09T16:10:05.184Z,1107.43
2023-05-09T16:12:32.803Z,1137.72
2023-05-09T16:14:59.456Z,1139.55
2023-05-09T16:17:25.981Z,1160.10
2023-05-09T16:19:52.407Z,1149.45
2023-05-09T16:22:19.194Z,1147.95
2023-05-09T16:24:46.356Z,1131.57
2023-05-09T16:27:14.324Z,1147.53
2023-05-09T16:29:41.412Z,1142.43
2023-05-09T16:32:08.672Z,1127.30
2023-05-09T16:34:36.554Z,1092.15
2023-05-09T16:37:03.772Z,1094.15
2023-05-09T16:39:35.535Z,1096.63
2023-05-09T16:42:07.599Z,1127.93
2023-05-09T16:44:34.088Z,1117.13
2023-05-09T16:47:03.795Z,1102.45
2023-05-09T16:49:30.269Z,1078.63
2023-05-09T16:51:58.831Z,1096.82
2023-05-09T16:54:25.409Z,1118.85
2023-05-09T16:56:51.785Z,1113.18
2023-05-09T16:59:18.604Z,1118.63
2023-05-09T17:01:45.125Z,1115.68
2023-05-09T17:04:11.667Z,1139.35
2023-05-09T17:06:38.243Z,1111.82
2023-05-09T17:09:04.705Z,1132.97
2023-05-09T17:11:31.150Z,1145.72
2023-05-09T17:13:57.510Z,1126.15
2023-05-09T17:16:23.878Z,1139.35
2023-05-09T17:18:51.911Z,1152.25
2023-05-09T17:21:20.110Z,1118.13
2023-05-09T17:23:46.561Z,1144.13
2023-05-09T17:26:12.939Z,1121.47
2023-05-09T17:28:39.376Z,1138.82
2023-05-09T17:31:05.894Z,1131.80
2023-05-09T17:33:32.361Z,1173.80
2023-05-09T17:35:59.958Z,1161.15
2023-05-09T17:38:26.364Z,1165.65
2023-05-09T17:40:52.704Z,1175.13
2023-05-09T17:43:19.204Z,1181.20
2023-05-09T17:45:46.233Z,1177.30
2023-05-09T17:48:13.427Z,1142.55
2023-05-09T17:50:39.849Z,1130.45
2023-05-09T17:53:08.903Z,1141.22
2023-05-09T17:55:35.669Z,1155.55
2023-05-09T17:58:04.433Z,1131.82
2023-05-09T18:00:30.942Z,1123.65
2023-05-09T18:03:01.494Z,1132.32
2023-05-09T18:05:28.027Z,1126.75
2023-05-09T18:07:54.431Z,1132.57
2023-05-09T18:10:23.407Z,1101.30
2023-05-09T18:12:49.902Z,1079.78
2023-05-09T18:15:16.306Z,1019.60
2023-05-09T18:17:42.894Z,972.22
2023-05-09T18:20:09.837Z,977.58
2023-05-09T18:22:37.314Z,1001.35
2023-05-09T18:25:03.968Z,1004.58
2023-05-09T18:27:30.418Z,995.25
2023-05-09T18:29:56.804Z,995.58
2023-05-09T18:32:23.240Z,1022.20
2023-05-09T18:34:50.274Z,1023.85
2023-05-09T18:37:17.042Z,1026.50
2023-05-09T18:39:45.022Z,1035.10
2023-05-09T18:42:16.175Z,1050.45
2023-05-09T18:44:43.072Z,1032.38
2023-05-09T18:47:09.547Z,1036.80
2023-05-09T18:49:36.222Z,1029.28
2023-05-09T18:52:03.387Z,1030.03
2023-05-09T18:54:30.296Z,1014.20
2023-05-09T18:56:57.034Z,984.03
2023-05-09T18:59:24.554Z,976.42
2023-05-09T19:01:50.954Z,947.58
2023-05-09T19:04:19.990Z,953.22
2023-05-09T19:06:47.226Z,973.90
2023-05-09T19:09:13.665Z,999.63
2023-05-09T19:11:40.277Z,1033.28
2023-05-09T19:14:07.129Z,993.28
2023-05-09T19:16:33.687Z,1025.03
2023-05-09T19:19:00.865Z,1018.10
2023-05-09T19:21:28.249Z,993.47
2023-05-09T19:23:54.879Z,1010.42
2023-05-09T19:26:22.080Z,1020.05
2023-05-09T19:28:48.555Z,1016.03
2023-05-09T19:31:15.973Z,994.33
2023-05-09T19:33:47.501Z,1003.17
2023-05-09T19:36:19.336Z,990.60
2023-05-09T19:38:48.024Z,980.70
2023-05-09T19:41:14.437Z,994.85
2023-05-09T19:43:40.915Z,1003.38
2023-05-09T19:46:09.886Z,987.17
2023-05-09T19:48:36.377Z,965.50
2023-05-09T19:51:03.016Z,970.45
2023-05-09T19:53:29.413Z,1005.90
2023-05-09T19:55:55.812Z,991.67
2023-05-09T19:58:22.314Z,989.88
2023-05-09T20:00:48.733Z,983.60
2023-05-09T20:03:17.442Z,985.38
2023-05-09T20:05:45.078Z,1003.50
2023-05-09T20:08:11.591Z,965.30
2023-05-09T20:10:38.095Z,1014.50
2023-05-09T20:13:04.712Z,999.95
2023-05-09T20:15:33.773Z,989.92
2023-05-09T20:18:03.476Z,969.72
2023-05-09T20:20:32.153Z,980.78
2023-05-09T20:22:58.630Z,983.40
2023-05-09T20:25:25.188Z,977.47
2023-05-09T20:27:51.761Z,990.95
2023-05-09T20:30:18.151Z,996.67
2023-05-09T20:32:44.621Z,1001.50
2023-05-09T20:35:11.172Z,989.17
2023-05-09T20:37:37.663Z,993.90
2023-05-09T20:40:08.459Z,982.80
2023-05-09T20:42:35.089Z,982.78
2023-05-09T20:45:02.085Z,986.72
2023-05-09T20:47:28.711Z,985.75
2023-05-09T20:49:56.239Z,993.92
2023-05-09T20:52:24.569Z,993.00
2023-05-09T20:54:50.887Z,993.15
2023-05-09T20:57:17.246Z,998.60
2023-05-09T20:59:44.204Z,984.03
2023-05-09T21:02:11.138Z,979.97
2023-05-09T21:04:37.686Z,968.47
2023-05-09T21:07:04.047Z,984.10
2023-05-09T21:09:30.436Z,985.47
2023-05-09T21:11:57.053Z,985.08
2023-05-09T21:14:23.386Z,998.15
2023-05-09T21:16:51.530Z,1000.00
2023-05-09T21:19:17.923Z,1007.00
2023-05-09T21:21:44.324Z,1011.08
2023-05-09T21:24:10.736Z,1003.25
2023-05-09T21:26:37.297Z,997.88
2023-05-09T21:29:03.708Z,992.88
2023-05-09T21:31:30.207Z,1009.78
2023-05-09T21:33:57.677Z,1015.55
2023-05-09T21:36:24.073Z,1028.47
2023-05-09T21:38:50.806Z,979.45
2023-05-09T21:41:17.275Z,994.30
2023-05-09T21:43:43.620Z,1002.95
2023-05-09T21:46:10.190Z,994.08
2023-05-09T21:48:36.709Z,1023.33
2023-05-09T21:51:03.669Z,1017.08
2023-05-09T21:53:30.166Z,1012.47
2023-05-09T21:55:56.596Z,1021.05
2023-05-09T21:58:22.982Z,1012.42
2023-05-09T22:00:49.465Z,1016.60
2023-05-09T22:03:15.933Z,1029.15
2023-05-09T22:05:42.376Z,1006.10
2023-05-09T22:08:09.215Z,1016.63
2023-05-09T22:10:37.678Z,1032.80
2023-05-09T22:13:04.165Z,1007.45
2023-05-09T22:15:30.618Z,1010.58
2023-05-09T22:17:59.823Z,1006.88
2023-05-09T22:20:26.328Z,1016.78
2023-05-09T22:22:52.686Z,1017.45
2023-05-09T22:25:19.450Z,1017.97
2023-05-09T22:27:45.781Z,1013.88
2023-05-09T22:30:12.497Z,1009.65
2023-05-09T22:32:39.366Z,1016.78
2023-05-09T22:35:06.193Z,1017.40
2023-05-09T22:37:32.607Z,1028.68
2023-05-09T22:40:01.361Z,1017.60
2023-05-09T22:42:29.251Z,1001.28
2023-05-09T22:44:55.791Z,1028.13
2023-05-09T22:47:22.237Z,1050.45
2023-05-09T22:49:49.758Z,1042.50
2023-05-09T22:52:16.206Z,1028.05
2023-05-09T22:54:42.679Z,1037.82
2023-05-09T22:57:09.548Z,1036.85
2023-05-09T22:59:36.897Z,1024.40
2023-05-09T23:02:03.836Z,1046.80
2023-05-09T23:04:30.297Z,1034.18
2023-05-09T23:06:56.730Z,1022.55
2023-05-09T23:09:23.265Z,1062.50
2023-05-09T23:11:49.762Z,1049.63
2023-05-09T23:14:16.133Z,1027.47
2023-05-09T23:16:42.700Z,1061.78
2023-05-09T23:19:10.304Z,1049.55
2023-05-09T23:21:36.763Z,1042.63
2023-05-09T23:24:03.605Z,1033.00
2023-05-09T23:26:29.964Z,1029.03
2023-05-09T23:28:56.571Z,1034.70
2023-05-09T23:31:23.067Z,1038.78
2023-05-09T23:33:49.598Z,1019.65
2023-05-09T23:36:16.060Z,1009.97
2023-05-09T23:38:42.455Z,1019.22
2023-05-09T23:41:08.837Z,994.20
2023-05-09T23:43:35.187Z,1015.15
2023-05-09T23:46:01.794Z,1005.90
2023-05-09T23:48:28.172Z,1001.20
2023-05-09T23:50:54.535Z,1016.10
2023-05-09T23:53:21.011Z,961.08
2023-05-09T23:55:47.368Z,967.05
2023-05-09T23:58:14.155Z,985.05
